Mullins Prairie, Texas
Current Conditions -  °F | °C
As of 12:15 AM on Saturday 29 Nov 2014 (Local Time) from K3T5 Reporting Station
Clear Clear  
Wind Chill: 57°   Ceiling: Unl
Heat Index: 57°   Visibility: 10mi
Dew Point: 56°   Wind: 6mph
Humidity: 94%   Direction: 190°S
Pressure: 30.09"   Gusts: NA
Location:  29.8569°N, 96.9311°W
Report Text: K3T5 290615Z AUTO 19005KT 10SM CLR 14/13 A3009 RMK AO2 T01410131
Loading
Personal Weather Stations






























Interactive Weather Map New forecast layout! Learn more

10-Day Weather Forecast

Advertisements
Track Severe Weather on mobile